sensor_id;sensor_type;location;lat;lon;timestamp;pressure;altitude;pressure_sealevel;temperature;humidity
48216;BME280;34005;48.844;10.098;2022-12-07T00:01:56;96679.75;;;4.83;76.03
48216;BME280;34005;48.844;10.098;2022-12-07T00:04:24;96680.41;;;4.85;76.21
48216;BME280;34005;48.844;10.098;2022-12-07T00:06:53;96676.34;;;4.83;76.63
48216;BME280;34005;48.844;10.098;2022-12-07T00:09:21;96682.47;;;4.82;76.23
48216;BME280;34005;48.844;10.098;2022-12-07T00:11:53;96676.34;;;4.83;75.73
48216;BME280;34005;48.844;10.098;2022-12-07T00:14:21;96672.66;;;4.85;76.26
48216;BME280;34005;48.844;10.098;2022-12-07T00:16:53;96669.00;;;4.88;76.19
48216;BME280;34005;48.844;10.098;2022-12-07T00:19:23;96672.25;;;4.90;76.69
48216;BME280;34005;48.844;10.098;2022-12-07T00:21:51;96665.44;;;4.89;76.53
48216;BME280;34005;48.844;10.098;2022-12-07T00:24:19;96667.34;;;4.87;76.09
48216;BME280;34005;48.844;10.098;2022-12-07T00:26:47;96665.44;;;4.89;76.21
48216;BME280;34005;48.844;10.098;2022-12-07T00:29:16;96665.28;;;4.90;74.89
48216;BME280;34005;48.844;10.098;2022-12-07T00:31:45;96666.25;;;4.89;75.67
48216;BME280;34005;48.844;10.098;2022-12-07T00:34:15;96658.78;;;4.86;75.85
48216;BME280;34005;48.844;10.098;2022-12-07T00:36:42;96651.84;;;4.87;76.16
48216;BME280;34005;48.844;10.098;2022-12-07T00:39:10;96655.22;;;4.87;75.95
48216;BME280;34005;48.844;10.098;2022-12-07T00:41:38;96652.66;;;4.87;75.48
48216;BME280;34005;48.844;10.098;2022-12-07T00:44:05;96664.63;;;4.88;75.78
48216;BME280;34005;48.844;10.098;2022-12-07T00:46:33;96663.66;;;4.89;76.18
48216;BME280;34005;48.844;10.098;2022-12-07T00:49:00;96654.16;;;4.90;76.34
48216;BME280;34005;48.844;10.098;2022-12-07T00:51:29;96660.41;;;4.87;75.51
48216;BME280;34005;48.844;10.098;2022-12-07T00:53:57;96657.81;;;4.87;75.88
48216;BME280;34005;48.844;10.098;2022-12-07T00:56:26;96657.00;;;4.87;75.78
48216;BME280;34005;48.844;10.098;2022-12-07T00:58:55;96656.19;;;4.86;75.91
48216;BME280;34005;48.844;10.098;2022-12-07T01:01:24;96660.41;;;4.87;76.73
48216;BME280;34005;48.844;10.098;2022-12-07T01:03:52;96666.53;;;4.86;76.59
48216;BME280;34005;48.844;10.098;2022-12-07T01:06:21;96657.31;;;4.84;76.51
48216;BME280;34005;48.844;10.098;2022-12-07T01:08:51;96656.50;;;4.83;76.49
48216;BME280;34005;48.844;10.098;2022-12-07T01:11:20;96653.75;;;4.85;75.43
48216;BME280;34005;48.844;10.098;2022-12-07T01:13:49;96658.13;;;4.84;76.00
48216;BME280;34005;48.844;10.098;2022-12-07T01:16:18;96660.56;;;4.86;76.08
48216;BME280;34005;48.844;10.098;2022-12-07T01:18:47;96660.41;;;4.87;75.37
48216;BME280;34005;48.844;10.098;2022-12-07T01:21:17;96659.47;;;4.88;76.23
48216;BME280;34005;48.844;10.098;2022-12-07T01:23:47;96655.75;;;4.91;75.45
48216;BME280;34005;48.844;10.098;2022-12-07T01:26:19;96671.94;;;4.93;75.28
48216;BME280;34005;48.844;10.098;2022-12-07T01:28:46;96667.59;;;4.93;75.09
48216;BME280;34005;48.844;10.098;2022-12-07T01:31:16;96663.22;;;4.94;74.88
48216;BME280;34005;48.844;10.098;2022-12-07T01:33:47;96665.81;;;4.94;74.28
48216;BME280;34005;48.844;10.098;2022-12-07T01:36:16;96665.00;;;4.93;74.29
48216;BME280;34005;48.844;10.098;2022-12-07T01:38:45;96669.34;;;4.93;75.07
48216;BME280;34005;48.844;10.098;2022-12-07T01:41:13;96664.31;;;4.91;74.98
48216;BME280;34005;48.844;10.098;2022-12-07T01:46:49;96669.94;;;4.87;75.13
48216;BME280;34005;48.844;10.098;2022-12-07T01:49:22;96667.78;;;4.82;75.23
48216;BME280;34005;48.844;10.098;2022-12-07T01:51:54;96667.09;;;4.80;75.10
48216;BME280;34005;48.844;10.098;2022-12-07T01:54:25;96675.97;;;4.78;74.36
48216;BME280;34005;48.844;10.098;2022-12-07T01:56:55;96668.34;;;4.76;74.23
48216;BME280;34005;48.844;10.098;2022-12-07T01:59:25;96670.66;;;4.79;74.98
48216;BME280;34005;48.844;10.098;2022-12-07T02:01:54;96673.25;;;4.79;74.53
48216;BME280;34005;48.844;10.098;2022-12-07T02:04:23;96666.84;;;4.83;74.74
48216;BME280;34005;48.844;10.098;2022-12-07T02:06:52;96672.00;;;4.83;74.69
48216;BME280;34005;48.844;10.098;2022-12-07T02:09:21;96668.75;;;4.81;75.20
48216;BME280;34005;48.844;10.098;2022-12-07T02:11:49;96666.16;;;4.81;75.18
48216;BME280;34005;48.844;10.098;2022-12-07T02:14:16;96669.03;;;4.78;75.32
48216;BME280;34005;48.844;10.098;2022-12-07T02:16:57;96668.88;;;4.80;74.69
48216;BME280;34005;48.844;10.098;2022-12-07T02:20:03;96672.13;;;4.82;75.18
48216;BME280;34005;48.844;10.098;2022-12-07T02:22:54;96675.53;;;4.82;74.18
48216;BME280;34005;48.844;10.098;2022-12-07T02:25:30;96668.44;;;4.84;74.16
48216;BME280;34005;48.844;10.098;2022-12-07T02:28:07;96672.28;;;4.80;74.50
48216;BME280;34005;48.844;10.098;2022-12-07T02:30:42;96665.63;;;4.78;74.72
48216;BME280;34005;48.844;10.098;2022-12-07T02:33:14;96668.22;;;4.78;74.51
48216;BME280;34005;48.844;10.098;2022-12-07T02:35:46;96661.41;;;4.77;74.57
48216;BME280;34005;48.844;10.098;2022-12-07T02:38:20;96659.94;;;4.74;75.24
48216;BME280;34005;48.844;10.098;2022-12-07T02:40:54;96660.09;;;4.72;75.13
48216;BME280;34005;48.844;10.098;2022-12-07T02:43:25;96660.22;;;4.71;75.73
48216;BME280;34005;48.844;10.098;2022-12-07T02:45:57;96660.22;;;4.71;75.21
48216;BME280;34005;48.844;10.098;2022-12-07T02:48:25;96664.16;;;4.75;75.48
48216;BME280;34005;48.844;10.098;2022-12-07T02:50:54;96663.34;;;4.74;75.84
48216;BME280;34005;48.844;10.098;2022-12-07T02:53:29;96660.91;;;4.73;75.49
48216;BME280;34005;48.844;10.098;2022-12-07T02:55:57;96658.19;;;4.74;75.83
48216;BME280;34005;48.844;10.098;2022-12-07T02:58:32;96653.81;;;4.75;76.52
48216;BME280;34005;48.844;10.098;2022-12-07T03:01:11;96656.00;;;4.70;75.10
48216;BME280;34005;48.844;10.098;2022-12-07T03:03:47;96654.38;;;4.69;75.52
48216;BME280;34005;48.844;10.098;2022-12-07T03:06:20;96652.75;;;4.68;74.45
48216;BME280;34005;48.844;10.098;2022-12-07T03:08:52;96652.75;;;4.68;76.02
48216;BME280;34005;48.844;10.098;2022-12-07T03:11:25;96650.31;;;4.66;75.22
48216;BME280;34005;48.844;10.098;2022-12-07T03:14:01;96645.97;;;4.67;75.92
48216;BME280;34005;48.844;10.098;2022-12-07T03:16:38;96644.84;;;4.69;75.98
48216;BME280;34005;48.844;10.098;2022-12-07T03:19:11;96646.50;;;4.70;74.72
48216;BME280;34005;48.844;10.098;2022-12-07T03:21:43;96647.31;;;4.71;75.66
48216;BME280;34005;48.844;10.098;2022-12-07T03:24:14;96650.84;;;4.70;75.33
48216;BME280;34005;48.844;10.098;2022-12-07T03:26:44;96642.13;;;4.71;75.56
48216;BME280;34005;48.844;10.098;2022-12-07T03:29:17;96648.91;;;4.72;75.67
48216;BME280;34005;48.844;10.098;2022-12-07T03:31:51;96638.06;;;4.68;74.61
48216;BME280;34005;48.844;10.098;2022-12-07T03:34:26;96646.75;;;4.67;75.66
48216;BME280;34005;48.844;10.098;2022-12-07T03:36:57;96636.44;;;4.67;76.01
48216;BME280;34005;48.844;10.098;2022-12-07T03:39:31;96643.81;;;4.62;75.57
48216;BME280;34005;48.844;10.098;2022-12-07T03:42:01;96637.97;;;4.60;76.04
48216;BME280;34005;48.844;10.098;2022-12-07T03:44:31;96640.41;;;4.62;76.56
48216;BME280;34005;48.844;10.098;2022-12-07T03:47:03;96644.91;;;4.60;75.84
48216;BME280;34005;48.844;10.098;2022-12-07T03:49:37;96650.09;;;4.60;75.16
48216;BME280;34005;48.844;10.098;2022-12-07T03:52:12;96641.34;;;4.61;76.31
48216;BME280;34005;48.844;10.098;2022-12-07T03:54:47;96641.34;;;4.61;76.21
48216;BME280;34005;48.844;10.098;2022-12-07T03:57:17;96634.41;;;4.61;76.22
48216;BME280;34005;48.844;10.098;2022-12-07T03:59:46;96635.94;;;4.64;76.38
48216;BME280;34005;48.844;10.098;2022-12-07T04:02:15;96639.19;;;4.66;76.17
48216;BME280;34005;48.844;10.098;2022-12-07T04:04:43;96634.81;;;4.66;75.83
48216;BME280;34005;48.844;10.098;2022-12-07T04:07:11;96634.94;;;4.65;75.02
48216;BME280;34005;48.844;10.098;2022-12-07T04:09:39;96636.19;;;4.61;74.62
48216;BME280;34005;48.844;10.098;2022-12-07T04:12:07;96632.94;;;4.59;75.30
48216;BME280;34005;48.844;10.098;2022-12-07T04:14:34;96633.09;;;4.57;75.79
48216;BME280;34005;48.844;10.098;2022-12-07T04:17:02;96627.94;;;4.57;76.09
48216;BME280;34005;48.844;10.098;2022-12-07T04:19:32;96622.78;;;4.57;75.86
48216;BME280;34005;48.844;10.098;2022-12-07T04:22:01;96623.44;;;4.59;75.62
48216;BME280;34005;48.844;10.098;2022-12-07T04:24:29;96623.13;;;4.62;76.31
48216;BME280;34005;48.844;10.098;2022-12-07T04:26:57;96615.25;;;4.64;76.37
48216;BME280;34005;48.844;10.098;2022-12-07T04:29:25;96623.13;;;4.62;76.36
48216;BME280;34005;48.844;10.098;2022-12-07T04:31:53;96625.84;;;4.61;76.46
48216;BME280;34005;48.844;10.098;2022-12-07T04:34:21;96625.06;;;4.60;76.17
48216;BME280;34005;48.844;10.098;2022-12-07T04:36:50;96618.28;;;4.59;75.43
48216;BME280;34005;48.844;10.098;2022-12-07T04:39:20;96610.53;;;4.59;74.88
48216;BME280;34005;48.844;10.098;2022-12-07T04:41:48;96607.09;;;4.59;75.19
48216;BME280;34005;48.844;10.098;2022-12-07T04:44:16;96603.03;;;4.56;74.66
48216;BME280;34005;48.844;10.098;2022-12-07T04:46:44;96589.31;;;4.56;74.41
48216;BME280;34005;48.844;10.098;2022-12-07T04:49:13;96598.19;;;4.53;74.23
48216;BME280;34005;48.844;10.098;2022-12-07T04:51:43;96600.22;;;4.49;73.94
48216;BME280;34005;48.844;10.098;2022-12-07T04:54:13;96603.09;;;4.46;74.68
48216;BME280;34005;48.844;10.098;2022-12-07T04:56:41;96597.09;;;4.46;74.94
48216;BME280;34005;48.844;10.098;2022-12-07T04:59:09;96594.94;;;4.41;73.71
48216;BME280;34005;48.844;10.098;2022-12-07T05:01:37;96589.13;;;4.39;74.32
48216;BME280;34005;48.844;10.098;2022-12-07T05:04:05;96591.69;;;4.39;74.29
48216;BME280;34005;48.844;10.098;2022-12-07T05:06:33;96588.44;;;4.37;73.72
48216;BME280;34005;48.844;10.098;2022-12-07T05:09:00;96594.56;;;4.36;73.86
48216;BME280;34005;48.844;10.098;2022-12-07T05:11:29;96599.06;;;4.34;73.85
48216;BME280;34005;48.844;10.098;2022-12-07T05:14:09;96593.22;;;4.32;73.56
48216;BME280;34005;48.844;10.098;2022-12-07T05:16:38;96590.94;;;4.29;72.15
48216;BME280;34005;48.844;10.098;2022-12-07T05:19:06;96594.47;;;4.28;73.26
48216;BME280;34005;48.844;10.098;2022-12-07T05:21:34;96589.31;;;4.28;73.78
48216;BME280;34005;48.844;10.098;2022-12-07T05:24:02;96587.41;;;4.30;73.47
48216;BME280;34005;48.844;10.098;2022-12-07T05:26:32;96594.47;;;4.28;72.89
48216;BME280;34005;48.844;10.098;2022-12-07T05:28:59;96590.78;;;4.30;74.00
48216;BME280;34005;48.844;10.098;2022-12-07T05:31:27;96594.19;;;4.31;74.39
48216;BME280;34005;48.844;10.098;2022-12-07T05:33:55;96595.81;;;4.32;74.64
48216;BME280;34005;48.844;10.098;2022-12-07T05:36:23;96600.03;;;4.33;74.75
48216;BME280;34005;48.844;10.098;2022-12-07T05:38:50;96611.00;;;4.35;74.77
48216;BME280;34005;48.844;10.098;2022-12-07T05:41:18;96603.13;;;4.37;74.30
48216;BME280;34005;48.844;10.098;2022-12-07T05:44:05;96601.53;;;4.36;73.69
48216;BME280;34005;48.844;10.098;2022-12-07T05:46:33;96596.50;;;4.34;74.69
48216;BME280;34005;48.844;10.098;2022-12-07T05:49:01;96600.69;;;4.35;74.43
48216;BME280;34005;48.844;10.098;2022-12-07T05:51:28;96605.56;;;4.38;74.73
48216;BME280;34005;48.844;10.098;2022-12-07T05:53:56;96598.50;;;4.40;75.32
48216;BME280;34005;48.844;10.098;2022-12-07T05:56:24;96600.13;;;4.41;74.99
48216;BME280;34005;48.844;10.098;2022-12-07T05:58:53;96596.59;;;4.42;74.06
48216;BME280;34005;48.844;10.098;2022-12-07T06:01:40;96591.44;;;4.42;73.89
48216;BME280;34005;48.844;10.098;2022-12-07T06:04:07;96590.63;;;4.42;74.73
48216;BME280;34005;48.844;10.098;2022-12-07T06:06:35;96594.81;;;4.43;74.86
48216;BME280;34005;48.844;10.098;2022-12-07T06:09:03;96604.72;;;4.47;75.84
48216;BME280;34005;48.844;10.098;2022-12-07T06:11:30;96612.59;;;4.46;74.65
48216;BME280;34005;48.844;10.098;2022-12-07T06:14:15;96616.59;;;4.40;73.42
48216;BME280;34005;48.844;10.098;2022-12-07T06:16:44;96611.97;;;4.34;71.99
48216;BME280;34005;48.844;10.098;2022-12-07T06:19:12;96623.84;;;4.27;72.10
48216;BME280;34005;48.844;10.098;2022-12-07T06:21:39;96619.78;;;4.24;72.84
48216;BME280;34005;48.844;10.098;2022-12-07T06:24:07;96618.44;;;4.20;72.07
48216;BME280;34005;48.844;10.098;2022-12-07T06:26:38;96616.94;;;4.18;72.27
48216;BME280;34005;48.844;10.098;2022-12-07T06:29:10;96622.91;;;4.18;72.48
48216;BME280;34005;48.844;10.098;2022-12-07T06:31:38;96627.41;;;4.16;73.04
48216;BME280;34005;48.844;10.098;2022-12-07T06:34:10;96626.44;;;4.17;74.10
48216;BME280;34005;48.844;10.098;2022-12-07T06:36:38;96627.66;;;4.23;74.60
48216;BME280;34005;48.844;10.098;2022-12-07T06:39:06;96640.94;;;4.28;74.35
48216;BME280;34005;48.844;10.098;2022-12-07T06:41:35;96635.53;;;4.31;73.62
48216;BME280;34005;48.844;10.098;2022-12-07T06:44:03;96633.63;;;4.33;74.35
48216;BME280;34005;48.844;10.098;2022-12-07T06:46:32;96633.88;;;4.30;73.61
48216;BME280;34005;48.844;10.098;2022-12-07T06:49:02;96641.91;;;4.27;74.01
48216;BME280;34005;48.844;10.098;2022-12-07T06:51:31;96642.06;;;4.25;74.54
48216;BME280;34005;48.844;10.098;2022-12-07T06:53:58;96630.91;;;4.25;74.10
48216;BME280;34005;48.844;10.098;2022-12-07T06:56:33;96637.97;;;4.23;74.31
48216;BME280;34005;48.844;10.098;2022-12-07T06:59:20;96639.59;;;4.24;74.14
48216;BME280;34005;48.844;10.098;2022-12-07T07:02:14;96647.34;;;4.24;74.50
48216;BME280;34005;48.844;10.098;2022-12-07T07:05:03;96644.25;;;4.20;75.32
48216;BME280;34005;48.844;10.098;2022-12-07T07:07:42;96642.59;;;4.19;75.17
48216;BME280;34005;48.844;10.098;2022-12-07T07:10:40;96643.72;;;4.17;75.33
48216;BME280;34005;48.844;10.098;2022-12-07T07:13:15;96643.72;;;4.17;75.88
48216;BME280;34005;48.844;10.098;2022-12-07T07:15:51;96645.34;;;4.18;75.11
48216;BME280;34005;48.844;10.098;2022-12-07T07:18:22;96644.25;;;4.20;75.42
48216;BME280;34005;48.844;10.098;2022-12-07T07:20:52;96650.91;;;4.23;75.98
48216;BME280;34005;48.844;10.098;2022-12-07T07:23:26;96645.88;;;4.21;75.02
48216;BME280;34005;48.844;10.098;2022-12-07T07:26:08;96635.53;;;4.21;74.86
48216;BME280;34005;48.844;10.098;2022-12-07T07:28:45;96646.53;;;4.23;75.18
48216;BME280;34005;48.844;10.098;2022-12-07T07:31:33;96646.13;;;4.28;75.18
48216;BME280;34005;48.844;10.098;2022-12-07T07:34:09;96654.53;;;4.30;74.91
48216;BME280;34005;48.844;10.098;2022-12-07T07:36:44;96649.38;;;4.30;75.54
48216;BME280;34005;48.844;10.098;2022-12-07T07:39:14;96655.88;;;4.34;75.15
48216;BME280;34005;48.844;10.098;2022-12-07T07:41:44;96665.53;;;4.32;75.15
48216;BME280;34005;48.844;10.098;2022-12-07T07:44:19;96661.34;;;4.31;74.64
48216;BME280;34005;48.844;10.098;2022-12-07T07:47:04;96670.03;;;4.30;74.41
48216;BME280;34005;48.844;10.098;2022-12-07T07:49:54;96663.09;;;4.30;74.79
48216;BME280;34005;48.844;10.098;2022-12-07T07:52:37;96668.13;;;4.32;75.24
48216;BME280;34005;48.844;10.098;2022-12-07T07:55:19;96675.75;;;4.33;74.17
48216;BME280;34005;48.844;10.098;2022-12-07T07:57:49;96666.50;;;4.31;73.93
48216;BME280;34005;48.844;10.098;2022-12-07T08:00:41;96670.69;;;4.32;75.17
48216;BME280;34005;48.844;10.098;2022-12-07T08:03:20;96667.56;;;4.38;74.54
48216;BME280;34005;48.844;10.098;2022-12-07T08:05:59;96663.59;;;4.44;74.93
48216;BME280;34005;48.844;10.098;2022-12-07T08:08:34;96662.66;;;4.45;74.92
48216;BME280;34005;48.844;10.098;2022-12-07T08:11:09;96665.34;;;4.43;74.05
48216;BME280;34005;48.844;10.098;2022-12-07T08:14:18;96668.25;;;4.40;74.56
48216;BME280;34005;48.844;10.098;2022-12-07T08:17:02;96676.00;;;4.40;74.40
48216;BME280;34005;48.844;10.098;2022-12-07T08:19:41;96668.91;;;4.42;74.73
48216;BME280;34005;48.844;10.098;2022-12-07T08:22:12;96667.00;;;4.44;74.09
48216;BME280;34005;48.844;10.098;2022-12-07T08:24:43;96668.63;;;4.45;74.38
48216;BME280;34005;48.844;10.098;2022-12-07T08:27:25;96667.28;;;4.41;73.00
48216;BME280;34005;48.844;10.098;2022-12-07T08:30:00;96664.56;;;4.43;74.34
48216;BME280;34005;48.844;10.098;2022-12-07T08:32:33;96663.59;;;4.44;74.64
48216;BME280;34005;48.844;10.098;2022-12-07T08:35:02;96675.44;;;4.46;74.82
48216;BME280;34005;48.844;10.098;2022-12-07T08:37:35;96675.13;;;4.49;74.84
48216;BME280;34005;48.844;10.098;2022-12-07T08:40:09;96673.09;;;4.53;74.40
48216;BME280;34005;48.844;10.098;2022-12-07T08:42:47;96674.84;;;4.52;74.26
48216;BME280;34005;48.844;10.098;2022-12-07T08:45:25;96668.59;;;4.55;74.28
48216;BME280;34005;48.844;10.098;2022-12-07T08:48:09;96667.50;;;4.58;72.76
48216;BME280;34005;48.844;10.098;2022-12-07T08:50:48;96670.75;;;4.60;73.18
48216;BME280;34005;48.844;10.098;2022-12-07T08:53:20;96668.00;;;4.61;73.73
48216;BME280;34005;48.844;10.098;2022-12-07T08:55:49;96668.84;;;4.62;73.83
48216;BME280;34005;48.844;10.098;2022-12-07T08:58:21;96680.78;;;4.63;73.12
48216;BME280;34005;48.844;10.098;2022-12-07T09:00:55;96675.91;;;4.60;71.82
48216;BME280;34005;48.844;10.098;2022-12-07T09:04:02;96679.44;;;4.59;71.44
48216;BME280;34005;48.844;10.098;2022-12-07T09:06:58;96677.03;;;4.57;70.91
48216;BME280;34005;48.844;10.098;2022-12-07T09:09:59;96678.09;;;4.54;69.70
48216;BME280;34005;48.844;10.098;2022-12-07T09:12:38;96675.50;;;4.54;70.53
48216;BME280;34005;48.844;10.098;2022-12-07T09:15:22;96673.59;;;4.57;71.21
48216;BME280;34005;48.844;10.098;2022-12-07T09:18:05;96677.53;;;4.61;71.48
48216;BME280;34005;48.844;10.098;2022-12-07T09:20:47;96670.19;;;4.66;71.94
48216;BME280;34005;48.844;10.098;2022-12-07T09:23:18;96666.63;;;4.67;71.98
48216;BME280;34005;48.844;10.098;2022-12-07T09:25:51;96671.00;;;4.66;70.58
48216;BME280;34005;48.844;10.098;2022-12-07T09:28:27;96669.88;;;4.69;70.67
48216;BME280;34005;48.844;10.098;2022-12-07T09:31:02;96672.19;;;4.72;69.86
48216;BME280;34005;48.844;10.098;2022-12-07T09:33:55;96668.66;;;4.73;69.56
48216;BME280;34005;48.844;10.098;2022-12-07T09:36:24;96672.84;;;4.74;69.34
48216;BME280;34005;48.844;10.098;2022-12-07T09:38:54;96674.50;;;4.75;68.95
48216;BME280;34005;48.844;10.098;2022-12-07T09:41:28;96665.75;;;4.76;68.55
48216;BME280;34005;48.844;10.098;2022-12-07T09:44:03;96667.41;;;4.77;68.53
48216;BME280;34005;48.844;10.098;2022-12-07T09:46:36;96664.66;;;4.79;68.11
48216;BME280;34005;48.844;10.098;2022-12-07T09:49:12;96670.38;;;4.82;68.96
48216;BME280;34005;48.844;10.098;2022-12-07T09:51:43;96654.41;;;4.87;69.05
48216;BME280;34005;48.844;10.098;2022-12-07T09:54:16;96662.72;;;4.90;69.62
48216;BME280;34005;48.844;10.098;2022-12-07T09:56:45;96655.31;;;4.95;68.62
48216;BME280;34005;48.844;10.098;2022-12-07T09:59:20;96653.09;;;5.01;66.84
48216;BME280;34005;48.844;10.098;2022-12-07T10:02:28;96650.91;;;5.06;65.92
48216;BME280;34005;48.844;10.098;2022-12-07T10:05:04;96657.44;;;5.10;67.77
48216;BME280;34005;48.844;10.098;2022-12-07T10:07:36;96653.28;;;5.17;67.75
48216;BME280;34005;48.844;10.098;2022-12-07T10:10:14;96641.03;;;5.19;67.26
48216;BME280;34005;48.844;10.098;2022-12-07T10:12:59;96639.13;;;5.21;65.69
48216;BME280;34005;48.844;10.098;2022-12-07T10:15:41;96645.31;;;5.28;66.45
48216;BME280;34005;48.844;10.098;2022-12-07T10:18:29;96644.19;;;5.31;67.38
48216;BME280;34005;48.844;10.098;2022-12-07T10:21:17;96638.88;;;5.32;64.75
48216;BME280;34005;48.844;10.098;2022-12-07T10:24:03;96636.31;;;5.32;64.76
48216;BME280;34005;48.844;10.098;2022-12-07T10:26:51;96638.75;;;5.34;65.04
48216;BME280;34005;48.844;10.098;2022-12-07T10:29:29;96630.81;;;5.35;66.51
48216;BME280;34005;48.844;10.098;2022-12-07T10:32:30;96631.66;;;5.36;65.22
48216;BME280;34005;48.844;10.098;2022-12-07T10:35:24;96625.66;;;5.35;64.51
48216;BME280;34005;48.844;10.098;2022-12-07T10:37:57;96625.66;;;5.35;65.57
48216;BME280;34005;48.844;10.098;2022-12-07T10:40:31;96620.47;;;5.35;66.34
48216;BME280;34005;48.844;10.098;2022-12-07T10:43:32;96623.06;;;5.35;65.79
48216;BME280;34005;48.844;10.098;2022-12-07T10:46:48;96624.03;;;5.34;65.72
48216;BME280;34005;48.844;10.098;2022-12-07T10:49:41;96621.81;;;5.40;66.33
48216;BME280;34005;48.844;10.098;2022-12-07T10:55:42;96609.53;;;5.42;65.61
48216;BME280;34005;48.844;10.098;2022-12-07T10:58:27;96608.72;;;5.41;65.23
48216;BME280;34005;48.844;10.098;2022-12-07T11:01:09;96610.19;;;5.44;66.44
48216;BME280;34005;48.844;10.098;2022-12-07T11:03:52;96608.28;;;5.46;66.75
48216;BME280;34005;48.844;10.098;2022-12-07T11:06:33;96600.06;;;5.50;65.45
48216;BME280;34005;48.844;10.098;2022-12-07T11:09:31;96603.47;;;5.51;67.74
48216;BME280;34005;48.844;10.098;2022-12-07T11:12:56;96597.47;;;5.50;66.04
48216;BME280;34005;48.844;10.098;2022-12-07T11:15:29;96592.31;;;5.50;67.03
48216;BME280;34005;48.844;10.098;2022-12-07T11:18:10;96596.16;;;5.46;66.85
48216;BME280;34005;48.844;10.098;2022-12-07T11:20:56;96595.50;;;5.44;66.99
48216;BME280;34005;48.844;10.098;2022-12-07T11:23:51;96596.47;;;5.43;65.93
48216;BME280;34005;48.844;10.098;2022-12-07T11:26:34;96593.75;;;5.45;66.77
48216;BME280;34005;48.844;10.098;2022-12-07T11:29:37;96587.59;;;5.46;66.61
48216;BME280;34005;48.844;10.098;2022-12-07T11:32:33;96590.75;;;5.40;65.29
48216;BME280;34005;48.844;10.098;2022-12-07T11:35:13;96589.00;;;5.40;66.55
48216;BME280;34005;48.844;10.098;2022-12-07T11:37:56;96588.19;;;5.40;66.05
48216;BME280;34005;48.844;10.098;2022-12-07T11:40:31;96580.72;;;5.36;66.76
48216;BME280;34005;48.844;10.098;2022-12-07T11:43:20;96585.91;;;5.36;67.39
48216;BME280;34005;48.844;10.098;2022-12-07T11:45:58;96577.16;;;5.37;66.76
48216;BME280;34005;48.844;10.098;2022-12-07T11:48:32;96580.06;;;5.34;67.67
48216;BME280;34005;48.844;10.098;2022-12-07T11:51:02;96575.19;;;5.31;67.45
48216;BME280;34005;48.844;10.098;2022-12-07T11:53:40;96569.38;;;5.29;67.18
48216;BME280;34005;48.844;10.098;2022-12-07T11:56:15;96575.34;;;5.30;66.55
48216;BME280;34005;48.844;10.098;2022-12-07T11:58:48;96571.94;;;5.29;66.49
48216;BME280;34005;48.844;10.098;2022-12-07T12:01:28;96568.53;;;5.29;67.08
48216;BME280;34005;48.844;10.098;2022-12-07T12:04:05;96574.22;;;5.32;67.44
48216;BME280;34005;48.844;10.098;2022-12-07T12:06:33;96561.97;;;5.34;67.13
48216;BME280;34005;48.844;10.098;2022-12-07T12:09:05;96554.88;;;5.36;68.35
48216;BME280;34005;48.844;10.098;2022-12-07T12:12:06;96548.56;;;5.39;69.10
48216;BME280;34005;48.844;10.098;2022-12-07T12:15:06;96539.56;;;5.43;68.29
48216;BME280;34005;48.844;10.098;2022-12-07T12:18:05;96545.25;;;5.47;67.80
48216;BME280;34005;48.844;10.098;2022-12-07T12:20:40;96544.13;;;5.49;67.09
48216;BME280;34005;48.844;10.098;2022-12-07T12:23:12;96541.38;;;5.51;67.89
48216;BME280;34005;48.844;10.098;2022-12-07T12:25:44;96547.06;;;5.54;68.28
48216;BME280;34005;48.844;10.098;2022-12-07T12:28:22;96536.84;;;5.53;67.90
48216;BME280;34005;48.844;10.098;2022-12-07T12:31:09;96539.44;;;5.53;68.34
48216;BME280;34005;48.844;10.098;2022-12-07T12:33:43;96544.63;;;5.53;68.34
48216;BME280;34005;48.844;10.098;2022-12-07T12:36:23;96537.84;;;5.52;66.98
48216;BME280;34005;48.844;10.098;2022-12-07T12:39:08;96540.88;;;5.47;67.40
48216;BME280;34005;48.844;10.098;2022-12-07T12:41:56;96537.78;;;5.44;68.68
48216;BME280;34005;48.844;10.098;2022-12-07T12:45:11;96534.91;;;5.47;67.05
48216;BME280;34005;48.844;10.098;2022-12-07T12:47:56;96536.81;;;5.45;68.57
48216;BME280;34005;48.844;10.098;2022-12-07T12:50:31;96532.59;;;5.44;68.47
48216;BME280;34005;48.844;10.098;2022-12-07T12:53:05;96530.00;;;5.44;68.97
48216;BME280;34005;48.844;10.098;2022-12-07T12:56:02;96521.78;;;5.48;68.52
48216;BME280;34005;48.844;10.098;2022-12-07T12:58:39;96515.81;;;5.48;67.98
48216;BME280;34005;48.844;10.098;2022-12-07T13:01:32;96517.44;;;5.49;67.22
48216;BME280;34005;48.844;10.098;2022-12-07T13:04:01;96516.63;;;5.48;67.27
48216;BME280;34005;48.844;10.098;2022-12-07T13:06:35;96518.53;;;5.46;67.44
48216;BME280;34005;48.844;10.098;2022-12-07T13:09:15;96515.97;;;5.46;67.81
48216;BME280;34005;48.844;10.098;2022-12-07T13:11:50;96516.78;;;5.47;67.14
48216;BME280;34005;48.844;10.098;2022-12-07T13:14:51;96510.03;;;5.54;68.15
48216;BME280;34005;48.844;10.098;2022-12-07T13:20:50;96512.31;;;5.57;67.40
48216;BME280;34005;48.844;10.098;2022-12-07T13:23:22;96510.03;;;5.54;67.08
48216;BME280;34005;48.844;10.098;2022-12-07T13:26:04;96509.06;;;5.55;68.77
48216;BME280;34005;48.844;10.098;2022-12-07T13:28:35;96506.66;;;5.53;68.50
48216;BME280;34005;48.844;10.098;2022-12-07T13:31:11;96501.59;;;5.52;68.47
48216;BME280;34005;48.844;10.098;2022-12-07T13:33:42;96507.38;;;5.46;68.12
48216;BME280;34005;48.844;10.098;2022-12-07T13:36:20;96504.13;;;5.44;68.23
48216;BME280;34005;48.844;10.098;2022-12-07T13:38:52;96500.09;;;5.41;68.08
48216;BME280;34005;48.844;10.098;2022-12-07T13:41:22;96503.13;;;5.36;67.85
48216;BME280;34005;48.844;10.098;2022-12-07T13:43:53;96501.50;;;5.35;68.09
48216;BME280;34005;48.844;10.098;2022-12-07T13:46:26;96498.47;;;5.40;67.74
48216;BME280;34005;48.844;10.098;2022-12-07T13:49:16;96506.72;;;5.44;67.68
48216;BME280;34005;48.844;10.098;2022-12-07T13:51:44;96502.53;;;5.43;68.11
48216;BME280;34005;48.844;10.098;2022-12-07T13:54:15;96505.13;;;5.43;68.44